Mt Bachelor previous 24hr weather report

For range Jan 27 2015 6:10 AM PST to Jan 28 2015 6:10 AM PST.

Date and time 6300' Base Temp 7800' Pine Temp 8000' Northwest Temp 9000' Summit Temp Base RH Pine RH Summit RH Pine Wind Avg Pine Wind Max Pine Wind Dir Northwest Wind Avg Northwest Wind Max Northwest Wind Dir Summit Wind Avg Summit Wind Max Summit Wind Dir Snowdepth
Jan 28 2015 6:00 AM PST 32.99 29.93 n/a 29.38 93 97 85 12 17 44 n/a n/a n/a 28 30 321 43
Jan 28 2015 5:00 AM PST 33.21 29.79 n/a 29.15 92 97 89 16 22 59 n/a n/a n/a 35 37 321 43
Jan 28 2015 4:00 AM PST 32.35 29.45 n/a 29.02 93 97 89 17 24 57 n/a n/a n/a 31 33 321 43
Jan 28 2015 3:00 AM PST 32.7 29.87 n/a 28.8 92 97 92 20 27 45 n/a n/a n/a 38 40 321 43
Jan 28 2015 2:00 AM PST 32.33 29.35 n/a 28.77 94 97 93 18 24 62 n/a n/a n/a 38 42 321 43
Jan 28 2015 1:00 AM PST 31.84 29.4 n/a 28.97 97 97 92 17 26 58 n/a n/a n/a 42 46 321 43
Jan 28 2015 12:00 AM PST 31.97 29.79 n/a 28.47 98 97 96 18 25 62 n/a n/a n/a 43 47 315 43
Jan 27 2015 11:00 PM PST 33.06 31.76 n/a 29.03 97 97 92 22 29 58 n/a n/a n/a 40 45 314 43
Jan 27 2015 10:00 PM PST 33.06 31.35 n/a 29.66 97 97 91 19 26 66 n/a n/a n/a 39 45 271 43
Jan 27 2015 9:00 PM PST 32.91 30.39 n/a 28.92 89 97 93 20 28 67 n/a n/a n/a 42 45 58 43
Jan 27 2015 8:00 PM PST 33.34 30.64 n/a 28.67 88 92 90 20 27 53 n/a n/a n/a 39 42 57 43
Jan 27 2015 7:00 PM PST 33.5 29.88 n/a 28.28 85 87 91 20 28 57 n/a n/a n/a 41 45 218 43
Jan 27 2015 6:00 PM PST 33.97 30.26 n/a 28.44 84 82 89 25 34 65 n/a n/a n/a 50 55 217 43
Jan 27 2015 5:00 PM PST 34.99 31.7 n/a 28.89 76 84 83 25 32 62 n/a n/a n/a 63 66 217 43
Jan 27 2015 4:00 PM PST 36.63 33.18 n/a 29.19 69 77 54 25 35 72 n/a n/a n/a 60 65 217 43
Jan 27 2015 3:00 PM PST 38.08 34.89 n/a 27.67 63 61 62 24 32 63 n/a n/a n/a 49 57 217 43
Jan 27 2015 2:00 PM PST 39.98 35.23 n/a 28.5 54 59 60 24 33 71 n/a n/a n/a 47 56 217 43
Jan 27 2015 1:00 PM PST 40.45 37.34 n/a 29.42 46 50 60 27 35 69 n/a n/a n/a 44 49 217 43
Jan 27 2015 12:00 PM PST 41.76 37.21 n/a 29.96 42 51 55 20 30 56 n/a n/a n/a 42 47 217 42
Jan 27 2015 11:00 AM PST 41.94 38.05 n/a 30.49 41 34 47 18 27 62 n/a n/a n/a 39 42 217 43
Jan 27 2015 10:00 AM PST 41.59 37.41 n/a 30.67 35 33 36 16 23 67 n/a n/a n/a 39 41 217 43
Jan 27 2015 9:00 AM PST 40.96 37.19 n/a 30.75 35 33 38 14 23 61 n/a n/a n/a 34 37 217 43
Jan 27 2015 8:00 AM PST 40.99 37.19 n/a 34.18 35 37 40 12 15 42 n/a n/a n/a 34 36 217 43
Jan 27 2015 7:00 AM PST 40.69 38.36 n/a 34.47 36 32 40 12 20 54 n/a n/a n/a 34 38 217 43